Airfield :
LOGIN :

Register | Disclaimer

   EN    FR    IT 

 










Legend :    VFR   Marginal VFR   IFR   Intensive IFR   Very Intensive IFR
Visi :
Ceiling :
>= 8 km
>= 3000ft
5 to 8 km
1000 to 3000 ft
1500m to 5 km
500 to 1000 ft
800 to 1500m
200 to 500 ft
< 800m
< 200 ft
Symbols :   Thunderstorms  Fog  Heavy snow  Heavy precipitations  Wind > 20 kt
SIGMETs :     Misc.  Thunderstorms  Icing  Turbulence  Mountain Waves  Volcanic Ashes







- Airport Elevation : 1079 ft


ETIK - Illesheim Air Base

CURRENT METAR :
  • 152256Z AUTO 00000KT 9999 CLR 11/08 A3018 RMK AO2 SLP214 T01080084 402670067 $

EXPIRED METARs :
  • 152156Z AUTO 00000KT 9999 CLR 11/08 A3019 RMK AO2 SLP219 T01120084 $
  • 152056Z AUTO 00000KT 9999 CLR 13/09 A3019 RMK AO2 SLP220 T01320094 50004 $

TAF TAF ETIK
Valid from the 15 at 22:00 until the 17 at 04:00 UTC


152202Z 1522/1704 VRB06KT 9999 SKC QNH3014INS
BECMG 1606/1607 VRB06KT 9999 FEW050 QNH3004INS
TEMPO 1610/1615 29010G15KT
BECMG 1615/1616 28009KT 9999 SCT070 BKN130 QNH3004INS
BECMG 1623/1624 29009KT 8000 -SHRA BKN035 OVC050 QNH3007INS TX27/1614Z TN07/1605Z
No reported NOTAMs for that airfield.



MET'MAP, your aeronautical weather chart ! - Copyright ORBIFLY December 2007 - Disclaimer

ORBIFLY MET'MAP TEAM :

Programming & Development : Alexandra Zaïnal
Concept & Development : Baudouin d'Aumeries
Co-Development & Prog : Marc-Olivier Méhu
Technical & hardware support : Manuel Goepfert

Contact : metmap@orbifly.com




SOURCES & CREDITS :

   NOAA